sensor_id;sensor_type;location;lat;lon;timestamp;pressure;altitude;pressure_sealevel;temperature;humidity
13027;BME280;6580;42.680;23.324;2022-09-09T00:00:13;95422.19;;;21.31;77.76
13027;BME280;6580;42.680;23.324;2022-09-09T00:02:46;95420.41;;;21.12;78.75
13027;BME280;6580;42.680;23.324;2022-09-09T00:05:23;95420.75;;;21.28;78.10
13027;BME280;6580;42.680;23.324;2022-09-09T00:07:59;95414.31;;;21.23;78.70
13027;BME280;6580;42.680;23.324;2022-09-09T00:10:33;95427.38;;;20.95;80.20
13027;BME280;6580;42.680;23.324;2022-09-09T00:13:11;95421.34;;;20.99;81.50
13027;BME280;6580;42.680;23.324;2022-09-09T00:15:46;95417.84;;;21.23;79.92
13027;BME280;6580;42.680;23.324;2022-09-09T00:18:22;95426.13;;;21.35;78.84
13027;BME280;6580;42.680;23.324;2022-09-09T00:20:58;95417.13;;;21.10;81.31
13027;BME280;6580;42.680;23.324;2022-09-09T00:23:32;95412.44;;;20.86;82.78
13027;BME280;6580;42.680;23.324;2022-09-09T00:26:07;95403.56;;;20.66;84.04
13027;BME280;6580;42.680;23.324;2022-09-09T00:28:39;95400.63;;;20.80;83.25
13027;BME280;6580;42.680;23.324;2022-09-09T00:31:13;95397.06;;;20.80;83.97
13027;BME280;6580;42.680;23.324;2022-09-09T00:33:44;95399.13;;;20.78;84.26
13027;BME280;6580;42.680;23.324;2022-09-09T00:36:16;95399.44;;;21.01;83.47
13027;BME280;6580;42.680;23.324;2022-09-09T00:38:47;95385.47;;;21.04;82.31
13027;BME280;6580;42.680;23.324;2022-09-09T00:41:21;95378.31;;;20.78;83.76
13027;BME280;6580;42.680;23.324;2022-09-09T00:43:56;95374.41;;;20.68;85.15
13027;BME280;6580;42.680;23.324;2022-09-09T00:46:50;95375.13;;;20.94;82.65
13027;BME280;6580;42.680;23.324;2022-09-09T00:49:28;95386.94;;;20.62;85.29
13027;BME280;6580;42.680;23.324;2022-09-09T00:52:12;95384.09;;;20.88;84.44
13027;BME280;6580;42.680;23.324;2022-09-09T00:54:49;95392.72;;;20.66;85.83
13027;BME280;6580;42.680;23.324;2022-09-09T00:57:25;95384.84;;;20.58;86.75
13027;BME280;6580;42.680;23.324;2022-09-09T01:00:15;95392.38;;;20.49;87.42
13027;BME280;6580;42.680;23.324;2022-09-09T01:02:49;95391.97;;;20.46;89.16
13027;BME280;6580;42.680;23.324;2022-09-09T01:05:22;95382.22;;;20.39;89.29
13027;BME280;6580;42.680;23.324;2022-09-09T01:07:54;95383.78;;;20.59;88.51
13027;BME280;6580;42.680;23.324;2022-09-09T01:10:27;95391.41;;;20.88;85.25
13027;BME280;6580;42.680;23.324;2022-09-09T01:13:01;95393.53;;;20.73;86.58
13027;BME280;6580;42.680;23.324;2022-09-09T01:15:32;95392.25;;;20.82;86.53
13027;BME280;6580;42.680;23.324;2022-09-09T01:18:05;95388.13;;;20.79;85.82
13027;BME280;6580;42.680;23.324;2022-09-09T01:20:39;95396.34;;;20.47;88.58
13027;BME280;6580;42.680;23.324;2022-09-09T01:23:25;95397.06;;;20.80;86.60
13027;BME280;6580;42.680;23.324;2022-09-09T01:26:12;95393.22;;;20.50;89.41
13027;BME280;6580;42.680;23.324;2022-09-09T01:28:40;95383.19;;;20.57;88.79
13027;BME280;6580;42.680;23.324;2022-09-09T01:31:15;95374.69;;;20.47;88.95
13027;BME280;6580;42.680;23.324;2022-09-09T01:33:52;95396.34;;;20.47;89.19
13027;BME280;6580;42.680;23.324;2022-09-09T01:36:26;95396.13;;;20.55;89.40
13027;BME280;6580;42.680;23.324;2022-09-09T01:38:55;95400.94;;;20.40;90.05
13027;BME280;6580;42.680;23.324;2022-09-09T01:41:24;95397.88;;;20.30;91.47
13027;BME280;6580;42.680;23.324;2022-09-09T01:43:53;95409.69;;;20.36;90.93
13027;BME280;6580;42.680;23.324;2022-09-09T01:46:22;95405.50;;;20.46;90.24
13027;BME280;6580;42.680;23.324;2022-09-09T01:48:50;95406.41;;;20.27;91.51
13027;BME280;6580;42.680;23.324;2022-09-09T01:51:17;95403.50;;;20.22;92.97
13027;BME280;6580;42.680;23.324;2022-09-09T01:53:44;95409.50;;;20.31;92.57
13027;BME280;6580;42.680;23.324;2022-09-09T01:56:21;95396.66;;;20.13;92.54
13027;BME280;6580;42.680;23.324;2022-09-09T01:59:03;95413.31;;;20.10;93.82
13027;BME280;6580;42.680;23.324;2022-09-09T02:01:46;95415.34;;;20.21;93.70
13027;BME280;6580;42.680;23.324;2022-09-09T02:04:25;95408.31;;;20.07;94.07
13027;BME280;6580;42.680;23.324;2022-09-09T02:06:56;95406.69;;;19.80;96.68
13027;BME280;6580;42.680;23.324;2022-09-09T02:09:26;95414.38;;;19.83;96.25
13027;BME280;6580;42.680;23.324;2022-09-09T02:12:00;95408.75;;;19.98;95.19
13027;BME280;6580;42.680;23.324;2022-09-09T02:14:38;95401.47;;;19.92;96.22
13027;BME280;6580;42.680;23.324;2022-09-09T02:17:09;95374.66;;;19.84;96.72
13027;BME280;6580;42.680;23.324;2022-09-09T02:19:43;95376.28;;;19.91;95.88
13027;BME280;6580;42.680;23.324;2022-09-09T02:22:12;95388.78;;;19.79;96.32
13027;BME280;6580;42.680;23.324;2022-09-09T02:24:40;95390.88;;;19.84;97.14
13027;BME280;6580;42.680;23.324;2022-09-09T02:27:08;95392.72;;;19.90;97.19
13027;BME280;6580;42.680;23.324;2022-09-09T02:29:40;95404.56;;;20.08;95.91
13027;BME280;6580;42.680;23.324;2022-09-09T02:32:12;95401.88;;;20.02;95.86
13027;BME280;6580;42.680;23.324;2022-09-09T02:34:43;95400.22;;;20.07;94.96
13027;BME280;6580;42.680;23.324;2022-09-09T02:37:15;95400.81;;;20.16;93.47
13027;BME280;6580;42.680;23.324;2022-09-09T02:39:42;95403.53;;;20.09;94.92
13027;BME280;6580;42.680;23.324;2022-09-09T02:42:09;95407.41;;;20.33;91.67
13027;BME280;6580;42.680;23.324;2022-09-09T02:44:38;95398.13;;;20.09;93.92
13027;BME280;6580;42.680;23.324;2022-09-09T02:47:15;95412.06;;;19.93;96.92
13027;BME280;6580;42.680;23.324;2022-09-09T02:49:50;95421.16;;;20.31;93.51
13027;BME280;6580;42.680;23.324;2022-09-09T02:52:26;95401.81;;;20.34;91.55
13027;BME280;6580;42.680;23.324;2022-09-09T02:55:04;95412.06;;;20.19;93.28
13027;BME280;6580;42.680;23.324;2022-09-09T02:57:36;95396.84;;;20.12;92.43
13027;BME280;6580;42.680;23.324;2022-09-09T03:00:09;95404.56;;;20.08;92.20
13027;BME280;6580;42.680;23.324;2022-09-09T03:02:37;95414.59;;;20.01;93.70
13027;BME280;6580;42.680;23.324;2022-09-09T03:05:05;95415.00;;;19.98;94.21
13027;BME280;6580;42.680;23.324;2022-09-09T03:07:32;95409.59;;;19.98;93.47
13027;BME280;6580;42.680;23.324;2022-09-09T03:09:59;95417.84;;;20.29;90.23
13027;BME280;6580;42.680;23.324;2022-09-09T03:12:26;95417.47;;;20.19;90.24
13027;BME280;6580;42.680;23.324;2022-09-09T03:14:53;95417.47;;;20.06;90.24
13027;BME280;6580;42.680;23.324;2022-09-09T03:17:23;95415.59;;;20.13;88.84
13027;BME280;6580;42.680;23.324;2022-09-09T03:19:51;95412.91;;;20.13;88.54
13027;BME280;6580;42.680;23.324;2022-09-09T03:22:19;95409.78;;;20.16;87.70
13027;BME280;6580;42.680;23.324;2022-09-09T03:24:46;95398.13;;;20.09;89.07
13027;BME280;6580;42.680;23.324;2022-09-09T03:27:13;95413.75;;;19.88;91.49
13027;BME280;6580;42.680;23.324;2022-09-09T03:29:41;95417.06;;;19.77;92.92
13027;BME280;6580;42.680;23.324;2022-09-09T03:32:08;95414.16;;;19.65;94.60
13027;BME280;6580;42.680;23.324;2022-09-09T03:34:37;95415.00;;;19.46;96.09
13027;BME280;6580;42.680;23.324;2022-09-09T03:39:51;95416.22;;;19.38;96.75
13027;BME280;6580;42.680;23.324;2022-09-09T03:42:20;95407.91;;;19.39;96.63
13027;BME280;6580;42.680;23.324;2022-09-09T03:44:47;95397.13;;;19.58;95.99
13027;BME280;6580;42.680;23.324;2022-09-09T03:47:16;95413.94;;;19.35;97.76
13027;BME280;6580;42.680;23.324;2022-09-09T03:49:45;95395.66;;;19.43;96.33
13027;BME280;6580;42.680;23.324;2022-09-09T03:52:13;95417.50;;;19.42;96.87
13027;BME280;6580;42.680;23.324;2022-09-09T03:54:41;95413.13;;;19.47;95.95
13027;BME280;6580;42.680;23.324;2022-09-09T03:57:09;95405.44;;;19.25;97.20
13027;BME280;6580;42.680;23.324;2022-09-09T03:59:37;95418.31;;;19.36;97.51
13027;BME280;6580;42.680;23.324;2022-09-09T04:02:07;95422.91;;;19.74;95.13
13027;BME280;6580;42.680;23.324;2022-09-09T04:04:34;95430.19;;;19.60;94.99
13027;BME280;6580;42.680;23.324;2022-09-09T04:07:02;95423.31;;;19.64;96.20
13027;BME280;6580;42.680;23.324;2022-09-09T04:09:32;95415.81;;;19.66;94.94
13027;BME280;6580;42.680;23.324;2022-09-09T04:12:07;95426.22;;;19.82;93.99
13027;BME280;6580;42.680;23.324;2022-09-09T04:14:36;95425.75;;;20.24;89.58
13027;BME280;6580;42.680;23.324;2022-09-09T04:17:03;95421.66;;;20.09;91.25
13027;BME280;6580;42.680;23.324;2022-09-09T04:19:31;95413.25;;;20.30;88.58
13027;BME280;6580;42.680;23.324;2022-09-09T04:21:58;95407.47;;;20.13;88.42
13027;BME280;6580;42.680;23.324;2022-09-09T04:24:27;95419.72;;;20.22;88.39
13027;BME280;6580;42.680;23.324;2022-09-09T04:26:54;95418.31;;;20.07;89.96
13027;BME280;6580;42.680;23.324;2022-09-09T04:29:23;95421.16;;;20.31;87.18
13027;BME280;6580;42.680;23.324;2022-09-09T04:31:52;95423.88;;;20.31;85.85
13027;BME280;6580;42.680;23.324;2022-09-09T04:34:20;95425.34;;;20.27;87.16
13027;BME280;6580;42.680;23.324;2022-09-09T04:36:48;95422.22;;;20.30;86.57
13027;BME280;6580;42.680;23.324;2022-09-09T04:39:18;95429.47;;;20.30;85.65
13027;BME280;6580;42.680;23.324;2022-09-09T04:41:48;95431.59;;;20.21;86.04
13027;BME280;6580;42.680;23.324;2022-09-09T04:44:19;95437.34;;;20.44;84.14
13027;BME280;6580;42.680;23.324;2022-09-09T04:46:47;95424.78;;;19.99;82.60
13027;BME280;6580;42.680;23.324;2022-09-09T04:49:14;95422.88;;;20.06;83.10
13027;BME280;6580;42.680;23.324;2022-09-09T04:51:41;95411.22;;;19.93;86.33
13027;BME280;6580;42.680;23.324;2022-09-09T04:54:08;95410.41;;;20.05;85.36
13027;BME280;6580;42.680;23.324;2022-09-09T04:56:38;95421.50;;;20.60;82.03
13027;BME280;6580;42.680;23.324;2022-09-09T04:59:17;95412.41;;;21.85;74.62
13027;BME280;6580;42.680;23.324;2022-09-09T05:01:44;95409.88;;;22.86;68.08
13027;BME280;6580;42.680;23.324;2022-09-09T05:04:14;95404.03;;;23.59;64.19
13027;BME280;6580;42.680;23.324;2022-09-09T05:06:42;95389.94;;;23.91;60.99
13027;BME280;6580;42.680;23.324;2022-09-09T05:09:09;95386.16;;;23.92;60.83
13027;BME280;6580;42.680;23.324;2022-09-09T05:11:36;95383.91;;;24.58;58.40
13027;BME280;6580;42.680;23.324;2022-09-09T05:14:04;95387.50;;;24.86;56.78
13027;BME280;6580;42.680;23.324;2022-09-09T05:16:33;95392.41;;;25.12;55.21
13027;BME280;6580;42.680;23.324;2022-09-09T05:19:00;95411.03;;;24.42;56.48
13027;BME280;6580;42.680;23.324;2022-09-09T05:21:28;95402.25;;;24.17;58.39
13027;BME280;6580;42.680;23.324;2022-09-09T05:23:57;95392.19;;;24.63;56.70
13027;BME280;6580;42.680;23.324;2022-09-09T05:26:23;95379.63;;;24.62;56.29
13027;BME280;6580;42.680;23.324;2022-09-09T05:28:52;95388.34;;;24.87;55.79
13027;BME280;6580;42.680;23.324;2022-09-09T05:31:24;95390.31;;;25.31;54.47
13027;BME280;6580;42.680;23.324;2022-09-09T05:33:58;95383.53;;;25.17;54.71
13027;BME280;6580;42.680;23.324;2022-09-09T05:36:25;95384.97;;;25.36;53.97
13027;BME280;6580;42.680;23.324;2022-09-09T05:38:55;95376.44;;;25.76;52.75
13027;BME280;6580;42.680;23.324;2022-09-09T05:41:23;95375.50;;;25.82;51.38
13027;BME280;6580;42.680;23.324;2022-09-09T05:43:50;95390.38;;;25.47;53.21
13027;BME280;6580;42.680;23.324;2022-09-09T05:46:18;95397.69;;;25.74;52.36
13027;BME280;6580;42.680;23.324;2022-09-09T05:48:47;95395.84;;;26.08;51.23
13027;BME280;6580;42.680;23.324;2022-09-09T05:51:21;95390.34;;;26.24;49.97
13027;BME280;6580;42.680;23.324;2022-09-09T05:53:51;95388.81;;;26.45;49.87
13027;BME280;6580;42.680;23.324;2022-09-09T05:56:20;95389.34;;;26.84;48.27
13027;BME280;6580;42.680;23.324;2022-09-09T05:58:50;95398.06;;;27.03;47.34
13027;BME280;6580;42.680;23.324;2022-09-09T06:01:20;95397.09;;;27.09;46.25
13027;BME280;6580;42.680;23.324;2022-09-09T06:03:49;95399.88;;;27.35;45.56
13027;BME280;6580;42.680;23.324;2022-09-09T06:06:19;95406.06;;;27.52;44.12
13027;BME280;6580;42.680;23.324;2022-09-09T06:08:48;95407.47;;;27.81;43.82
13027;BME280;6580;42.680;23.324;2022-09-09T06:11:18;95401.88;;;27.97;42.12
13027;BME280;6580;42.680;23.324;2022-09-09T06:13:46;95403.31;;;28.05;40.88
13027;BME280;6580;42.680;23.324;2022-09-09T06:16:18;95398.06;;;27.98;41.46
13027;BME280;6580;42.680;23.324;2022-09-09T06:18:48;95389.28;;;27.96;40.80
13027;BME280;6580;42.680;23.324;2022-09-09T06:21:19;95398.53;;;27.90;40.90
13027;BME280;6580;42.680;23.324;2022-09-09T06:23:52;95405.00;;;27.58;41.76
13027;BME280;6580;42.680;23.324;2022-09-09T06:26:20;95408.63;;;28.16;41.29
13027;BME280;6580;42.680;23.324;2022-09-09T06:28:51;95409.34;;;28.33;40.04
13027;BME280;6580;42.680;23.324;2022-09-09T06:31:19;95403.75;;;28.23;40.58
13027;BME280;6580;42.680;23.324;2022-09-09T06:33:47;95404.00;;;28.53;40.22
13027;BME280;6580;42.680;23.324;2022-09-09T06:36:21;95392.19;;;28.94;39.48
13027;BME280;6580;42.680;23.324;2022-09-09T06:38:52;95389.88;;;28.71;39.51
13027;BME280;6580;42.680;23.324;2022-09-09T06:41:22;95382.16;;;29.14;38.90
13027;BME280;6580;42.680;23.324;2022-09-09T06:43:49;95377.38;;;28.95;38.97
13027;BME280;6580;42.680;23.324;2022-09-09T06:46:18;95383.50;;;29.07;38.06
13027;BME280;6580;42.680;23.324;2022-09-09T06:48:47;95374.19;;;29.13;37.95
13027;BME280;6580;42.680;23.324;2022-09-09T06:51:16;95397.16;;;28.97;37.97
13027;BME280;6580;42.680;23.324;2022-09-09T06:53:46;95396.84;;;28.84;38.59
13027;BME280;6580;42.680;23.324;2022-09-09T06:56:18;95401.59;;;28.67;38.72
13027;BME280;6580;42.680;23.324;2022-09-09T06:58:46;95401.66;;;29.23;37.59
13027;BME280;6580;42.680;23.324;2022-09-09T07:01:17;95406.00;;;29.14;37.41
13027;BME280;6580;42.680;23.324;2022-09-09T07:03:47;95408.28;;;28.39;38.84
13027;BME280;6580;42.680;23.324;2022-09-09T07:06:17;95396.03;;;28.52;38.86
13027;BME280;6580;42.680;23.324;2022-09-09T07:08:50;95399.13;;;29.06;38.30
13027;BME280;6580;42.680;23.324;2022-09-09T07:11:19;95406.19;;;29.54;37.30
13027;BME280;6580;42.680;23.324;2022-09-09T07:13:49;95390.59;;;29.79;37.09
13027;BME280;6580;42.680;23.324;2022-09-09T07:16:17;95395.59;;;29.97;36.34
13027;BME280;6580;42.680;23.324;2022-09-09T07:18:47;95397.19;;;29.83;36.38
13027;BME280;6580;42.680;23.324;2022-09-09T07:21:16;95387.63;;;30.50;35.46
13027;BME280;6580;42.680;23.324;2022-09-09T07:23:44;95403.03;;;30.66;35.42
13027;BME280;6580;42.680;23.324;2022-09-09T07:26:17;95391.97;;;30.91;34.77
13027;BME280;6580;42.680;23.324;2022-09-09T07:28:45;95387.63;;;30.70;34.71
13027;BME280;6580;42.680;23.324;2022-09-09T07:31:14;95382.44;;;31.47;33.85
13027;BME280;6580;42.680;23.324;2022-09-09T07:33:42;95378.94;;;31.21;33.98
13027;BME280;6580;42.680;23.324;2022-09-09T07:36:13;95373.47;;;31.80;32.92
13027;BME280;6580;42.680;23.324;2022-09-09T07:38:45;95371.84;;;31.74;32.87
13027;BME280;6580;42.680;23.324;2022-09-09T07:41:17;95389.78;;;30.93;33.66
13027;BME280;6580;42.680;23.324;2022-09-09T07:43:46;95388.53;;;31.34;33.27
13027;BME280;6580;42.680;23.324;2022-09-09T07:46:15;95389.72;;;31.18;33.41
13027;BME280;6580;42.680;23.324;2022-09-09T07:48:43;95388.16;;;31.60;33.01
13027;BME280;6580;42.680;23.324;2022-09-09T07:51:12;95387.59;;;31.63;32.91
13027;BME280;6580;42.680;23.324;2022-09-09T07:53:42;95388.44;;;31.64;32.76
13027;BME280;6580;42.680;23.324;2022-09-09T07:56:10;95389.19;;;32.18;32.49
13027;BME280;6580;42.680;23.324;2022-09-09T07:58:40;95377.75;;;32.67;31.56
13027;BME280;6580;42.680;23.324;2022-09-09T08:01:11;95379.56;;;33.28;31.06
13027;BME280;6580;42.680;23.324;2022-09-09T08:03:39;95374.97;;;33.66;30.05
13027;BME280;6580;42.680;23.324;2022-09-09T08:06:07;95371.13;;;33.20;30.19
13027;BME280;6580;42.680;23.324;2022-09-09T08:08:38;95375.53;;;32.93;31.17
13027;BME280;6580;42.680;23.324;2022-09-09T08:11:10;95380.75;;;33.23;30.56
13027;BME280;6580;42.680;23.324;2022-09-09T08:13:41;95380.63;;;33.09;31.02
13027;BME280;6580;42.680;23.324;2022-09-09T08:16:11;95367.06;;;32.84;30.76
13027;BME280;6580;42.680;23.324;2022-09-09T08:18:38;95366.53;;;32.82;30.81
13027;BME280;6580;42.680;23.324;2022-09-09T08:21:08;95373.94;;;32.58;31.12
13027;BME280;6580;42.680;23.324;2022-09-09T08:23:37;95362.94;;;32.25;31.67
13027;BME280;6580;42.680;23.324;2022-09-09T08:26:06;95375.19;;;32.76;31.23
13027;BME280;6580;42.680;23.324;2022-09-09T08:28:34;95380.41;;;33.29;30.63
13027;BME280;6580;42.680;23.324;2022-09-09T08:31:07;95361.50;;;32.89;31.17
13027;BME280;6580;42.680;23.324;2022-09-09T08:34:00;95356.34;;;32.54;31.12
13027;BME280;6580;42.680;23.324;2022-09-09T08:36:55;95319.91;;;31.91;32.36
13027;BME280;6580;42.680;23.324;2022-09-09T08:40:09;95348.03;;;30.71;33.89
13027;BME280;6580;42.680;23.324;2022-09-09T08:43:16;95363.03;;;31.09;34.30
13027;BME280;6580;42.680;23.324;2022-09-09T08:45:54;95373.19;;;31.18;33.72
13027;BME280;6580;42.680;23.324;2022-09-09T08:48:54;95358.78;;;31.36;33.96
13027;BME280;6580;42.680;23.324;2022-09-09T08:51:26;95349.00;;;31.00;33.79
13027;BME280;6580;42.680;23.324;2022-09-09T08:53:58;95352.72;;;31.44;33.18
13027;BME280;6580;42.680;23.324;2022-09-09T08:56:27;95358.56;;;31.27;33.76
13027;BME280;6580;42.680;23.324;2022-09-09T08:59:00;95362.78;;;30.95;34.31
13027;BME280;6580;42.680;23.324;2022-09-09T09:01:41;95354.28;;;31.60;32.77
13027;BME280;6580;42.680;23.324;2022-09-09T09:04:29;95359.78;;;32.03;32.19
13027;BME280;6580;42.680;23.324;2022-09-09T09:07:04;95352.41;;;31.94;32.57
13027;BME280;6580;42.680;23.324;2022-09-09T09:09:39;95362.09;;;32.24;32.33
13027;BME280;6580;42.680;23.324;2022-09-09T09:12:15;95362.44;;;32.51;31.37
13027;BME280;6580;42.680;23.324;2022-09-09T09:14:44;95353.66;;;32.44;32.05
13027;BME280;6580;42.680;23.324;2022-09-09T09:17:18;95353.47;;;32.03;32.32
13027;BME280;6580;42.680;23.324;2022-09-09T09:19:51;95344.41;;;31.49;33.05
13027;BME280;6580;42.680;23.324;2022-09-09T09:22:19;95358.22;;;30.66;35.01
13027;BME280;6580;42.680;23.324;2022-09-09T09:24:52;95354.63;;;30.75;35.13
13027;BME280;6580;42.680;23.324;2022-09-09T09:27:27;95343.22;;;31.16;34.00
13027;BME280;6580;42.680;23.324;2022-09-09T09:30:00;95353.69;;;31.05;34.36
13027;BME280;6580;42.680;23.324;2022-09-09T09:32:33;95356.28;;;30.61;35.00
13027;BME280;6580;42.680;23.324;2022-09-09T09:35:11;95353.56;;;30.26;35.63
13027;BME280;6580;42.680;23.324;2022-09-09T09:37:40;95350.78;;;29.82;36.18
13027;BME280;6580;42.680;23.324;2022-09-09T09:40:10;95351.91;;;30.55;35.47
13027;BME280;6580;42.680;23.324;2022-09-09T09:42:38;95344.06;;;31.02;34.20
13027;BME280;6580;42.680;23.324;2022-09-09T09:45:23;95339.06;;;31.72;33.67
13027;BME280;6580;42.680;23.324;2022-09-09T09:48:01;95324.31;;;31.48;33.15
13027;BME280;6580;42.680;23.324;2022-09-09T09:50:31;95332.34;;;31.40;34.03
13027;BME280;6580;42.680;23.324;2022-09-09T09:53:01;95337.31;;;30.40;35.32
13027;BME280;6580;42.680;23.324;2022-09-09T09:55:47;95334.53;;;30.70;35.79
13027;BME280;6580;42.680;23.324;2022-09-09T09:58:17;95310.63;;;30.65;35.26
13027;BME280;6580;42.680;23.324;2022-09-09T10:00:49;95319.50;;;30.17;35.99
13027;BME280;6580;42.680;23.324;2022-09-09T10:03:26;95322.72;;;30.64;35.36
13027;BME280;6580;42.680;23.324;2022-09-09T10:05:55;95325.53;;;30.09;36.20
13027;BME280;6580;42.680;23.324;2022-09-09T10:08:23;95324.13;;;30.47;35.97
13027;BME280;6580;42.680;23.324;2022-09-09T10:11:22;95327.00;;;31.10;35.11
13027;BME280;6580;42.680;23.324;2022-09-09T10:14:00;95338.56;;;31.07;35.95
13027;BME280;6580;42.680;23.324;2022-09-09T10:16:42;95341.16;;;30.59;36.31
13027;BME280;6580;42.680;23.324;2022-09-09T10:19:14;95343.09;;;30.28;36.25
13027;BME280;6580;42.680;23.324;2022-09-09T10:22:08;95338.72;;;30.07;37.55
13027;BME280;6580;42.680;23.324;2022-09-09T10:25:17;95333.72;;;30.44;36.99
13027;BME280;6580;42.680;23.324;2022-09-09T10:28:00;95334.25;;;30.71;36.55
13027;BME280;6580;42.680;23.324;2022-09-09T10:30:41;95340.81;;;30.80;36.26
13027;BME280;6580;42.680;23.324;2022-09-09T10:33:28;95334.78;;;30.78;36.26
13027;BME280;6580;42.680;23.324;2022-09-09T10:36:10;95340.63;;;30.52;36.34
13027;BME280;6580;42.680;23.324;2022-09-09T10:38:42;95335.44;;;30.10;36.99
13027;BME280;6580;42.680;23.324;2022-09-09T10:41:18;95347.72;;;29.63;37.93
13027;BME280;6580;42.680;23.324;2022-09-09T10:44:12;95347.16;;;29.51;39.24
13027;BME280;6580;42.680;23.324;2022-09-09T10:46:52;95337.84;;;29.77;38.38
13027;BME280;6580;42.680;23.324;2022-09-09T10:49:36;95344.19;;;29.88;37.74
13027;BME280;6580;42.680;23.324;2022-09-09T10:52:15;95343.13;;;30.13;37.96
13027;BME280;6580;42.680;23.324;2022-09-09T10:54:55;95341.47;;;30.07;38.00
13027;BME280;6580;42.680;23.324;2022-09-09T10:57:30;95340.94;;;30.15;38.14
13027;BME280;6580;42.680;23.324;2022-09-09T11:00:01;95344.22;;;30.27;38.30
13027;BME280;6580;42.680;23.324;2022-09-09T11:02:34;95334.28;;;29.92;38.02
13027;BME280;6580;42.680;23.324;2022-09-09T11:05:12;95337.94;;;29.01;39.56
13027;BME280;6580;42.680;23.324;2022-09-09T11:07:48;95338.97;;;28.85;40.43
13027;BME280;6580;42.680;23.324;2022-09-09T11:10:23;95337.19;;;29.20;40.26
13027;BME280;6580;42.680;23.324;2022-09-09T11:12:54;95338.53;;;29.18;39.91
13027;BME280;6580;42.680;23.324;2022-09-09T11:15:29;95338.50;;;29.08;40.14
13027;BME280;6580;42.680;23.324;2022-09-09T11:18:01;95330.59;;;29.26;40.05
13027;BME280;6580;42.680;23.324;2022-09-09T11:20:32;95319.00;;;28.99;40.43
13027;BME280;6580;42.680;23.324;2022-09-09T11:23:03;95320.44;;;29.32;40.06
13027;BME280;6580;42.680;23.324;2022-09-09T11:25:36;95326.84;;;29.52;39.43
13027;BME280;6580;42.680;23.324;2022-09-09T11:28:28;95320.84;;;29.75;39.86
13027;BME280;6580;42.680;23.324;2022-09-09T11:31:21;95313.69;;;29.79;39.31
13027;BME280;6580;42.680;23.324;2022-09-09T11:34:24;95308.66;;;29.26;40.77
13027;BME280;6580;42.680;23.324;2022-09-09T11:37:10;95291.81;;;28.98;41.59
13027;BME280;6580;42.680;23.324;2022-09-09T11:40:14;95292.91;;;28.97;42.56
13027;BME280;6580;42.680;23.324;2022-09-09T11:42:45;95283.50;;;29.69;41.30
13027;BME280;6580;42.680;23.324;2022-09-09T11:45:23;95283.78;;;29.98;40.96
13027;BME280;6580;42.680;23.324;2022-09-09T11:47:52;95282.41;;;30.10;39.48
13027;BME280;6580;42.680;23.324;2022-09-09T11:50:32;95265.63;;;30.16;39.91
13027;BME280;6580;42.680;23.324;2022-09-09T11:53:19;95248.56;;;30.29;39.78
13027;BME280;6580;42.680;23.324;2022-09-09T11:56:10;95252.69;;;30.12;40.08
13027;BME280;6580;42.680;23.324;2022-09-09T11:58:43;95254.66;;;30.02;40.17
13027;BME280;6580;42.680;23.324;2022-09-09T12:01:29;95251.78;;;30.61;39.08
13027;BME280;6580;42.680;23.324;2022-09-09T12:04:16;95247.75;;;31.45;37.93
13027;BME280;6580;42.680;23.324;2022-09-09T12:06:45;95246.47;;;32.05;36.48
13027;BME280;6580;42.680;23.324;2022-09-09T12:09:19;95246.78;;;31.70;36.78
13027;BME280;6580;42.680;23.324;2022-09-09T12:11:49;95244.09;;;31.65;37.23
13027;BME280;6580;42.680;23.324;2022-09-09T12:14:36;95239.75;;;32.44;35.99
13027;BME280;6580;42.680;23.324;2022-09-09T12:17:19;95224.25;;;32.95;35.17
13027;BME280;6580;42.680;23.324;2022-09-09T12:19:46;95229.88;;;33.08;34.36
13027;BME280;6580;42.680;23.324;2022-09-09T12:22:21;95207.38;;;32.54;35.45
13027;BME280;6580;42.680;23.324;2022-09-09T12:24:57;95232.91;;;32.88;34.85
13027;BME280;6580;42.680;23.324;2022-09-09T12:27:29;95232.69;;;33.03;34.85
13027;BME280;6580;42.680;23.324;2022-09-09T12:30:03;95229.09;;;33.26;34.17
13027;BME280;6580;42.680;23.324;2022-09-09T12:32:32;95219.88;;;33.49;33.98
13027;BME280;6580;42.680;23.324;2022-09-09T12:35:00;95218.00;;;33.81;33.38
13027;BME280;6580;42.680;23.324;2022-09-09T12:37:34;95214.81;;;33.01;34.28
13027;BME280;6580;42.680;23.324;2022-09-09T12:40:04;95215.28;;;32.37;35.38
13027;BME280;6580;42.680;23.324;2022-09-09T12:42:31;95185.00;;;32.04;36.02
13027;BME280;6580;42.680;23.324;2022-09-09T12:45:02;95209.63;;;31.29;37.96
13027;BME280;6580;42.680;23.324;2022-09-09T12:47:37;95205.47;;;31.31;38.33
13027;BME280;6580;42.680;23.324;2022-09-09T12:50:15;95207.09;;;31.37;37.87
13027;BME280;6580;42.680;23.324;2022-09-09T12:52:43;95203.56;;;30.79;38.90
13027;BME280;6580;42.680;23.324;2022-09-09T12:55:17;95208.31;;;30.68;39.45
13027;BME280;6580;42.680;23.324;2022-09-09T12:57:45;95195.19;;;30.40;40.33
13027;BME280;6580;42.680;23.324;2022-09-09T13:00:16;95184.31;;;31.27;38.48
13027;BME280;6580;42.680;23.324;2022-09-09T13:03:17;95183.69;;;31.73;37.55
13027;BME280;6580;42.680;23.324;2022-09-09T13:05:43;95185.78;;;31.81;37.60
13027;BME280;6580;42.680;23.324;2022-09-09T13:08:13;95188.94;;;31.98;37.01
13027;BME280;6580;42.680;23.324;2022-09-09T13:10:43;95180.19;;;31.63;37.70
13027;BME280;6580;42.680;23.324;2022-09-09T13:13:14;95161.47;;;31.55;38.32
13027;BME280;6580;42.680;23.324;2022-09-09T13:15:50;95185.19;;;30.74;39.69
13027;BME280;6580;42.680;23.324;2022-09-09T13:18:20;95173.66;;;30.62;40.35
13027;BME280;6580;42.680;23.324;2022-09-09T13:20:48;95183.75;;;30.82;39.84
13027;BME280;6580;42.680;23.324;2022-09-09T13:23:18;95172.13;;;30.36;40.60
13027;BME280;6580;42.680;23.324;2022-09-09T13:25:54;95149.03;;;30.32;40.93
13027;BME280;6580;42.680;23.324;2022-09-09T13:28:22;95165.41;;;30.67;40.42
13027;BME280;6580;42.680;23.324;2022-09-09T13:30:58;95160.66;;;30.83;40.19
13027;BME280;6580;42.680;23.324;2022-09-09T13:33:32;95155.69;;;31.23;39.37